createdAt,value
2019-05-20T00:01:18.641Z,7.85
2019-05-20T00:03:48.803Z,5.20
2019-05-20T00:06:18.804Z,7.03
2019-05-20T00:08:48.973Z,5.62
2019-05-20T00:11:18.985Z,7.33
2019-05-20T00:13:49.022Z,5.20
2019-05-20T00:16:19.097Z,4.15
2019-05-20T00:18:49.215Z,3.85
2019-05-20T00:21:19.284Z,4.33
2019-05-20T00:23:50.304Z,4.42
2019-05-20T00:26:20.485Z,7.58
2019-05-20T00:28:50.622Z,4.70
2019-05-20T00:31:20.725Z,5.97
2019-05-20T00:33:50.891Z,5.83
2019-05-20T00:36:21.032Z,6.22
2019-05-20T00:39:08.587Z,5.28
2019-05-20T00:41:38.658Z,4.75
2019-05-20T00:44:08.774Z,5.55
2019-05-20T00:46:38.764Z,5.85
2019-05-20T00:49:08.868Z,5.72
2019-05-20T00:51:38.976Z,5.42
2019-05-20T00:54:09.040Z,6.30
2019-05-20T00:56:39.170Z,5.70
2019-05-20T00:59:09.268Z,7.85
2019-05-20T01:01:39.377Z,4.53
2019-05-20T01:04:09.469Z,4.30
2019-05-20T01:06:39.472Z,6.00
2019-05-20T01:09:10.544Z,5.65
2019-05-20T01:11:40.623Z,6.70
2019-05-20T01:14:10.735Z,13.08
2019-05-20T01:16:40.875Z,4.22
2019-05-20T01:19:10.987Z,5.50
2019-05-20T01:21:41.061Z,4.75
2019-05-20T01:24:11.179Z,5.83
2019-05-20T01:26:41.275Z,5.50
2019-05-20T01:29:11.278Z,5.67
2019-05-20T01:31:41.378Z,7.05
2019-05-20T01:34:11.345Z,5.25
2019-05-20T01:36:41.465Z,5.20
2019-05-20T01:39:11.607Z,4.80
2019-05-20T01:41:41.644Z,8.10
2019-05-20T01:44:11.715Z,6.80
2019-05-20T01:46:41.743Z,6.33
2019-05-20T01:49:11.823Z,4.30
2019-05-20T01:51:41.923Z,7.12
2019-05-20T01:54:12.077Z,5.12
2019-05-20T01:56:42.147Z,5.35
2019-05-20T01:59:12.195Z,4.60
2019-05-20T02:01:42.368Z,5.72
2019-05-20T02:04:12.560Z,3.45
2019-05-20T02:06:42.682Z,4.25
2019-05-20T02:09:12.613Z,3.17
2019-05-20T02:11:42.791Z,4.47
2019-05-20T02:14:15.476Z,3.22
2019-05-20T02:16:45.586Z,3.40
2019-05-20T02:19:15.672Z,3.90
2019-05-20T02:21:45.721Z,7.87
2019-05-20T02:24:16.836Z,2.98
2019-05-20T02:26:46.832Z,2.10
2019-05-20T02:29:16.880Z,2.77
2019-05-20T02:31:46.947Z,5.20
2019-05-20T02:34:16.996Z,2.45
2019-05-20T02:36:47.039Z,6.80
2019-05-20T02:39:17.144Z,3.02
2019-05-20T02:41:47.365Z,3.62
2019-05-20T02:44:17.428Z,2.65
2019-05-20T02:46:47.534Z,2.30
2019-05-20T02:49:17.610Z,2.35
2019-05-20T02:51:47.709Z,3.22
2019-05-20T02:54:17.774Z,3.72
2019-05-20T02:56:47.901Z,3.75
2019-05-20T02:59:17.894Z,2.80
2019-05-20T03:01:47.928Z,2.98
2019-05-20T03:04:17.932Z,3.08
2019-05-20T03:06:47.980Z,3.25
2019-05-20T03:09:18.029Z,4.92
2019-05-20T03:11:48.078Z,3.10
2019-05-20T03:14:18.114Z,6.72
2019-05-20T03:16:48.179Z,7.25
2019-05-20T03:19:18.290Z,4.90
2019-05-20T03:21:48.363Z,4.83
2019-05-20T03:24:18.463Z,4.37
2019-05-20T03:26:48.603Z,8.75
2019-05-20T03:29:18.673Z,5.72
2019-05-20T03:31:48.727Z,5.83
2019-05-20T03:34:43.472Z,9.35
2019-05-20T03:36:50.528Z,7.20
2019-05-20T03:39:20.566Z,9.85
2019-05-20T03:41:50.645Z,6.53
2019-05-20T03:44:20.722Z,9.05
2019-05-20T03:46:50.824Z,12.28
2019-05-20T03:49:20.861Z,10.05
2019-05-20T03:51:52.536Z,14.28
2019-05-20T03:54:22.801Z,12.70
2019-05-20T03:56:52.882Z,11.45
2019-05-20T03:59:23.001Z,15.48
2019-05-20T04:01:53.005Z,13.78
2019-05-20T04:04:25.169Z,9.25
2019-05-20T04:06:54.803Z,12.35
2019-05-20T04:09:24.840Z,13.48
2019-05-20T04:11:54.958Z,13.68
2019-05-20T04:14:25.004Z,12.23
2019-05-20T04:16:55.041Z,13.00
2019-05-20T04:19:26.070Z,14.13
2019-05-20T04:21:56.133Z,16.62
2019-05-20T04:24:26.207Z,13.53
2019-05-20T04:27:00.251Z,14.07
2019-05-20T04:29:30.371Z,13.13
2019-05-20T04:32:00.364Z,13.95
2019-05-20T04:34:31.978Z,15.32
2019-05-20T04:37:02.043Z,12.25
2019-05-20T04:39:32.093Z,12.13
2019-05-20T04:42:06.303Z,12.07
2019-05-20T04:44:34.016Z,13.70
2019-05-20T04:47:04.061Z,12.88
2019-05-20T04:49:34.120Z,14.03
2019-05-20T04:52:04.204Z,13.03
2019-05-20T04:54:34.251Z,20.35
2019-05-20T04:57:04.371Z,20.52
2019-05-20T04:59:34.312Z,18.35
2019-05-20T05:02:04.356Z,25.43
2019-05-20T05:04:34.368Z,23.70
2019-05-20T05:07:04.484Z,20.70
2019-05-20T05:09:34.572Z,23.95
2019-05-20T05:12:04.782Z,22.70
2019-05-20T05:14:34.787Z,24.35
2019-05-20T05:17:04.916Z,22.90
2019-05-20T05:19:34.992Z,22.37
2019-05-20T05:22:05.143Z,22.48
2019-05-20T05:24:35.255Z,22.98
2019-05-20T05:27:05.368Z,22.70
2019-05-20T05:29:35.421Z,21.65
2019-05-20T05:32:06.403Z,24.65
2019-05-20T05:34:36.537Z,26.55
2019-05-20T05:37:06.612Z,25.27
2019-05-20T05:39:36.600Z,20.90
2019-05-20T05:42:06.644Z,21.37
2019-05-20T05:44:36.707Z,23.87
2019-05-20T05:47:06.755Z,26.23
2019-05-20T05:49:36.623Z,25.80
2019-05-20T05:52:06.761Z,24.67
2019-05-20T05:54:36.720Z,23.12
2019-05-20T05:57:06.833Z,19.48
2019-05-20T05:59:36.775Z,21.82
2019-05-20T06:02:06.891Z,21.57
2019-05-20T06:04:36.948Z,15.68
2019-05-20T06:07:07.028Z,16.85
2019-05-20T06:09:37.014Z,16.45
2019-05-20T06:12:07.068Z,20.97
2019-05-20T06:14:37.162Z,19.95
2019-05-20T06:17:07.270Z,17.20
2019-05-20T06:19:37.211Z,18.02
2019-05-20T06:22:07.331Z,21.15
2019-05-20T06:24:37.396Z,15.38
2019-05-20T06:27:07.480Z,17.80
2019-05-20T06:29:37.495Z,17.82
2019-05-20T06:32:07.604Z,16.95
2019-05-20T06:34:37.711Z,17.98
2019-05-20T06:37:12.160Z,20.17
2019-05-20T06:39:42.234Z,20.48
2019-05-20T06:42:12.347Z,24.32
2019-05-20T06:44:52.177Z,22.27
2019-05-20T06:47:14.062Z,21.70
2019-05-20T06:49:44.050Z,22.75
2019-05-20T06:52:14.128Z,22.02
2019-05-20T06:54:44.291Z,22.80
2019-05-20T06:57:14.391Z,21.57
2019-05-20T06:59:44.506Z,22.15
2019-05-20T07:02:14.745Z,24.92
2019-05-20T07:04:44.998Z,22.17
2019-05-20T07:07:20.942Z,22.93
2019-05-20T07:09:46.920Z,18.00
2019-05-20T07:14:47.499Z,20.65
2019-05-20T07:17:17.729Z,19.42
2019-05-20T07:19:47.887Z,21.07
2019-05-20T07:22:18.090Z,20.15
2019-05-20T07:24:48.367Z,20.27
2019-05-20T07:27:18.919Z,21.40
2019-05-20T07:29:49.109Z,19.00
2019-05-20T07:32:19.228Z,22.62
2019-05-20T07:34:49.275Z,19.92
2019-05-20T07:37:19.459Z,17.35
2019-05-20T07:39:49.472Z,19.07
2019-05-20T07:42:19.641Z,17.27
2019-05-20T07:44:51.232Z,16.67
2019-05-20T07:47:21.384Z,20.92
2019-05-20T07:49:51.782Z,15.45
2019-05-20T07:52:24.473Z,21.27
2019-05-20T07:54:55.945Z,21.40
2019-05-20T08:00:02.154Z,24.40
2019-05-20T08:02:29.766Z,21.90
2019-05-20T08:05:00.021Z,26.07
2019-05-20T08:07:50.773Z,20.60
2019-05-20T08:10:02.265Z,27.58
2019-05-20T08:12:32.426Z,23.50
2019-05-20T08:15:02.766Z,18.25
2019-05-20T08:17:32.925Z,22.77
2019-05-20T08:20:03.387Z,20.97
2019-05-20T08:22:33.455Z,22.47
2019-05-20T08:25:05.500Z,25.68
2019-05-20T08:27:35.904Z,24.00
2019-05-20T08:30:09.506Z,30.23
2019-05-20T08:32:39.802Z,30.50
2019-05-20T08:35:10.277Z,28.38
2019-05-20T08:37:45.790Z,29.10
2019-05-20T08:40:14.643Z,36.75
2019-05-20T08:42:50.615Z,35.08
2019-05-20T08:45:18.300Z,35.78
2019-05-20T08:47:48.684Z,35.30
2019-05-20T08:50:19.681Z,43.35
2019-05-20T08:52:50.735Z,38.40
2019-05-20T08:55:21.862Z,37.70
2019-05-20T08:58:11.552Z,37.23
2019-05-20T09:00:42.544Z,36.38
2019-05-20T09:03:13.548Z,39.78
2019-05-20T09:05:43.928Z,38.20
2019-05-20T09:08:14.242Z,32.25
2019-05-20T09:10:44.583Z,30.80
2019-05-20T09:13:15.463Z,33.05
2019-05-20T09:15:46.094Z,36.45
2019-05-20T09:18:16.958Z,32.00
2019-05-20T09:20:47.375Z,26.77
2019-05-20T09:23:17.679Z,23.15
2019-05-20T09:25:48.000Z,26.40
2019-05-20T09:28:18.319Z,25.45
2019-05-20T09:30:48.614Z,25.00
2019-05-20T09:33:18.919Z,25.65
2019-05-20T09:35:49.303Z,36.38
2019-05-20T09:38:21.463Z,37.77
2019-05-20T09:40:51.926Z,32.45
2019-05-20T09:43:22.219Z,31.05
2019-05-20T09:46:06.706Z,29.82
2019-05-20T09:48:25.979Z,33.40
2019-05-20T09:50:56.268Z,36.90
2019-05-20T09:53:26.599Z,38.23
2019-05-20T09:55:57.484Z,32.40
2019-05-20T09:58:27.932Z,32.45
2019-05-20T10:00:58.234Z,26.07
2019-05-20T10:03:28.532Z,29.27
2019-05-20T10:05:58.857Z,27.25
2019-05-20T10:08:37.907Z,29.32
2019-05-20T10:11:01.493Z,31.25
2019-05-20T10:13:31.758Z,29.45
2019-05-20T10:16:02.800Z,28.25
2019-05-20T10:18:37.116Z,31.10
2019-05-20T10:21:05.408Z,28.20
2019-05-20T10:23:35.751Z,25.32
2019-05-20T10:26:05.934Z,30.32
2019-05-20T10:28:36.032Z,26.85
2019-05-20T10:31:06.300Z,25.05
2019-05-20T10:33:37.247Z,28.15
2019-05-20T10:36:07.553Z,26.02
2019-05-20T10:38:54.675Z,27.98
2019-05-20T10:41:09.354Z,25.70
2019-05-20T10:43:39.452Z,24.10
2019-05-20T10:46:09.551Z,30.55
2019-05-20T10:48:39.703Z,24.60
2019-05-20T10:51:10.482Z,24.52
2019-05-20T10:53:40.736Z,25.40
2019-05-20T10:56:10.810Z,25.05
2019-05-20T10:58:41.060Z,26.70
2019-05-20T11:01:11.136Z,25.25
2019-05-20T11:03:41.921Z,24.15
2019-05-20T11:06:12.183Z,24.45
2019-05-20T11:08:42.619Z,24.17
2019-05-20T11:11:14.263Z,24.98
2019-05-20T11:13:44.756Z,22.15
2019-05-20T11:16:15.580Z,27.27
2019-05-20T11:18:45.776Z,26.57
2019-05-20T11:21:15.932Z,26.05
2019-05-20T11:23:46.063Z,26.65
2019-05-20T11:26:16.136Z,25.27
2019-05-20T11:28:46.243Z,26.82
2019-05-20T11:31:16.323Z,27.82
2019-05-20T11:33:46.487Z,25.88
2019-05-20T11:36:16.647Z,26.02
2019-05-20T11:38:46.891Z,27.93
2019-05-20T11:41:17.177Z,26.65
2019-05-20T11:43:47.349Z,24.18
2019-05-20T11:46:17.461Z,27.25
2019-05-20T11:48:47.675Z,27.42
2019-05-20T11:51:17.875Z,30.82
2019-05-20T11:53:48.053Z,25.08
2019-05-20T11:56:18.138Z,27.25
2019-05-20T11:58:48.109Z,27.95
2019-05-20T12:01:18.335Z,29.55
2019-05-20T12:03:50.243Z,28.00
2019-05-20T12:06:20.895Z,28.20
2019-05-20T12:08:50.909Z,32.55
2019-05-20T12:11:21.015Z,29.87
2019-05-20T12:13:51.083Z,34.25
2019-05-20T12:16:21.158Z,27.22
2019-05-20T12:18:52.079Z,32.67
2019-05-20T12:21:22.056Z,32.65
2019-05-20T12:23:52.150Z,28.60
2019-05-20T12:26:22.863Z,31.10
2019-05-20T12:28:53.049Z,34.38
2019-05-20T12:31:23.039Z,29.45
2019-05-20T12:33:53.134Z,25.25
2019-05-20T12:36:23.277Z,22.40
2019-05-20T12:38:53.264Z,23.98
2019-05-20T12:41:23.439Z,22.13
2019-05-20T12:44:10.799Z,23.50
2019-05-20T12:46:25.407Z,22.25
2019-05-20T12:48:55.554Z,21.50
2019-05-20T12:51:25.711Z,22.98
2019-05-20T12:53:55.774Z,23.98
2019-05-20T12:56:25.867Z,24.92
2019-05-20T12:58:56.001Z,22.45
2019-05-20T13:01:26.078Z,26.45
2019-05-20T13:03:56.229Z,24.92
2019-05-20T13:06:26.383Z,26.95
2019-05-20T13:08:56.505Z,23.12
2019-05-20T13:11:26.687Z,24.75
2019-05-20T13:13:56.757Z,21.85
2019-05-20T13:16:26.955Z,23.02
2019-05-20T13:18:57.030Z,23.67
2019-05-20T13:21:27.140Z,20.65
2019-05-20T13:23:57.974Z,20.12
2019-05-20T13:26:29.166Z,19.77
2019-05-20T13:28:59.929Z,17.00
2019-05-20T13:31:30.269Z,15.78
2019-05-20T13:34:00.434Z,14.58
2019-05-20T13:36:30.454Z,13.78
2019-05-20T13:39:00.598Z,13.68
2019-05-20T13:41:30.805Z,17.37
2019-05-20T13:44:00.974Z,17.48
2019-05-20T13:46:31.122Z,20.68
2019-05-20T13:49:01.127Z,18.27
2019-05-20T13:51:31.266Z,19.35
2019-05-20T13:54:01.383Z,22.32
2019-05-20T13:56:31.410Z,18.00
2019-05-20T13:59:01.357Z,21.23
2019-05-20T14:01:31.534Z,23.55
2019-05-20T14:04:01.759Z,22.75
2019-05-20T14:06:32.783Z,21.85
2019-05-20T14:09:07.310Z,20.57
2019-05-20T14:11:35.669Z,22.80
2019-05-20T14:14:05.868Z,21.68
2019-05-20T14:16:35.812Z,25.37
2019-05-20T14:19:06.831Z,30.20
2019-05-20T14:21:36.922Z,20.25
2019-05-20T14:24:07.110Z,22.30
2019-05-20T14:26:37.103Z,23.85
2019-05-20T14:29:07.283Z,22.00
2019-05-20T14:31:37.384Z,18.77
2019-05-20T14:34:07.667Z,18.90
2019-05-20T14:36:39.988Z,19.27
2019-05-20T14:39:09.409Z,19.20
2019-05-20T14:41:39.653Z,17.60
2019-05-20T14:44:09.771Z,17.00
2019-05-20T14:46:39.808Z,14.58
2019-05-20T14:49:09.892Z,14.47
2019-05-20T14:51:40.031Z,13.98
2019-05-20T14:54:10.040Z,11.57
2019-05-20T14:56:40.087Z,11.78
2019-05-20T14:59:10.175Z,12.40
2019-05-20T15:01:40.390Z,14.03
2019-05-20T15:04:10.486Z,15.45
2019-05-20T15:06:40.632Z,19.32
2019-05-20T15:09:11.171Z,16.05
2019-05-20T15:11:41.289Z,16.80
2019-05-20T15:14:11.471Z,16.30
2019-05-20T15:16:41.571Z,16.97
2019-05-20T15:19:11.568Z,14.98
2019-05-20T15:21:41.623Z,15.30
2019-05-20T15:24:11.760Z,14.38
2019-05-20T15:26:41.800Z,16.62
2019-05-20T15:29:26.919Z,14.58
2019-05-20T15:31:43.551Z,13.00
2019-05-20T15:34:13.545Z,12.35
2019-05-20T15:36:43.812Z,15.35
2019-05-20T15:39:13.855Z,15.93
2019-05-20T15:41:43.846Z,17.52
2019-05-20T15:44:14.101Z,16.23
2019-05-20T15:46:44.192Z,17.57
2019-05-20T15:49:15.312Z,15.72
2019-05-20T15:51:45.363Z,15.65
2019-05-20T15:54:15.411Z,18.90
2019-05-20T15:56:45.423Z,16.20
2019-05-20T15:59:15.541Z,17.80
2019-05-20T16:01:45.577Z,15.60
2019-05-20T16:04:15.616Z,20.52
2019-05-20T16:06:45.823Z,17.50
2019-05-20T16:09:17.299Z,17.05
2019-05-20T16:11:47.623Z,17.37
2019-05-20T16:14:17.737Z,21.10
2019-05-20T16:16:47.820Z,18.82
2019-05-20T16:19:18.876Z,16.23
2019-05-20T16:21:48.934Z,19.52
2019-05-20T16:24:19.064Z,19.95
2019-05-20T16:26:49.149Z,19.92
2019-05-20T16:29:19.279Z,15.88
2019-05-20T16:31:49.463Z,15.15
2019-05-20T16:34:19.590Z,17.35
2019-05-20T16:36:49.782Z,14.38
2019-05-20T16:39:20.763Z,21.05
2019-05-20T16:41:50.941Z,15.85
2019-05-20T16:44:21.053Z,10.90
2019-05-20T16:46:51.160Z,10.82
2019-05-20T16:49:21.273Z,9.73
2019-05-20T16:51:51.408Z,8.13
2019-05-20T16:54:21.529Z,9.75
2019-05-20T16:56:51.555Z,9.20
2019-05-20T16:59:21.723Z,8.85
2019-05-20T17:01:51.847Z,8.23
2019-05-20T17:04:21.952Z,9.35
2019-05-20T17:06:52.058Z,9.28
2019-05-20T17:09:22.051Z,8.65
2019-05-20T17:11:52.200Z,7.70
2019-05-20T17:14:23.272Z,8.00
2019-05-20T17:16:53.272Z,7.20
2019-05-20T17:19:23.322Z,9.25
2019-05-20T17:21:53.752Z,8.68
2019-05-20T17:24:24.864Z,6.78
2019-05-20T17:26:55.033Z,7.45
2019-05-20T17:29:25.060Z,7.45
2019-05-20T17:31:55.153Z,9.00
2019-05-20T17:34:25.212Z,8.78
2019-05-20T17:36:55.179Z,7.17
2019-05-20T17:39:25.289Z,6.33
2019-05-20T17:41:55.372Z,6.33
2019-05-20T17:44:25.410Z,5.92
2019-05-20T17:46:55.520Z,10.93
2019-05-20T17:49:26.560Z,8.13
2019-05-20T17:51:56.532Z,6.37
2019-05-20T17:54:26.531Z,5.80
2019-05-20T17:56:56.575Z,7.30
2019-05-20T17:59:26.576Z,12.13
2019-05-20T18:01:56.613Z,6.12
2019-05-20T18:04:26.730Z,7.35
2019-05-20T18:06:56.692Z,7.30
2019-05-20T18:09:28.423Z,6.65
2019-05-20T18:11:58.581Z,8.95
2019-05-20T18:14:28.619Z,6.78
2019-05-20T18:16:58.586Z,7.80
2019-05-20T18:19:28.639Z,5.87
2019-05-20T18:21:59.583Z,6.58
2019-05-20T18:24:29.729Z,6.92
2019-05-20T18:26:59.780Z,7.28
2019-05-20T18:29:29.843Z,8.03
2019-05-20T18:31:59.886Z,7.42
2019-05-20T18:34:29.955Z,7.15
2019-05-20T18:36:59.995Z,7.33
2019-05-20T18:39:30.100Z,8.33
2019-05-20T18:42:00.221Z,12.75
2019-05-20T18:44:30.202Z,8.85
2019-05-20T18:47:00.301Z,9.13
2019-05-20T18:49:30.275Z,8.93
2019-05-20T18:52:00.384Z,14.53
2019-05-20T18:54:30.419Z,7.67
2019-05-20T18:57:01.409Z,9.55
2019-05-20T18:59:31.581Z,9.73
2019-05-20T19:02:05.250Z,8.70
2019-05-20T19:04:36.257Z,9.48
2019-05-20T19:07:06.328Z,15.65
2019-05-20T19:09:36.436Z,12.15
2019-05-20T19:12:08.410Z,9.33
2019-05-20T19:14:38.593Z,9.40
2019-05-20T19:17:08.758Z,14.33
2019-05-20T19:19:38.927Z,9.70
2019-05-20T19:22:09.059Z,10.23
2019-05-20T19:24:39.233Z,9.45
2019-05-20T19:27:09.743Z,10.10
2019-05-20T19:29:39.860Z,13.25
2019-05-20T19:32:10.770Z,9.45
2019-05-20T19:34:43.923Z,15.53
2019-05-20T19:37:14.031Z,14.18
2019-05-20T19:39:44.222Z,10.28
2019-05-20T19:42:14.366Z,9.28
2019-05-20T19:44:47.767Z,11.97
2019-05-20T19:47:17.977Z,15.00
2019-05-20T19:49:48.695Z,16.82
2019-05-20T19:52:18.834Z,17.35
2019-05-20T19:54:49.010Z,13.83
2019-05-20T19:57:19.098Z,14.60
2019-05-20T19:59:49.118Z,15.65
2019-05-20T20:02:19.208Z,13.40
2019-05-20T20:04:49.350Z,9.95
2019-05-20T20:07:19.385Z,17.60
2019-05-20T20:09:49.474Z,15.28
2019-05-20T20:12:19.519Z,11.43
2019-05-20T20:14:49.602Z,12.98
2019-05-20T20:17:19.754Z,15.13
2019-05-20T20:19:49.827Z,14.07
2019-05-20T20:22:19.864Z,13.45
2019-05-20T20:24:50.255Z,13.65
2019-05-20T20:27:20.250Z,10.55
2019-05-20T20:29:50.292Z,10.95
2019-05-20T20:32:35.115Z,13.62
2019-05-20T20:34:52.034Z,11.78
2019-05-20T20:37:22.146Z,11.48
2019-05-20T20:39:52.254Z,8.05
2019-05-20T20:42:23.294Z,8.23
2019-05-20T20:44:53.260Z,10.45
2019-05-20T20:47:23.262Z,9.93
2019-05-20T20:49:53.299Z,7.85
2019-05-20T20:52:24.256Z,9.80
2019-05-20T20:54:54.378Z,7.00
2019-05-20T20:57:24.374Z,8.25
2019-05-20T20:59:54.413Z,7.50
2019-05-20T21:02:24.622Z,7.75
2019-05-20T21:04:54.704Z,6.47
2019-05-20T21:07:24.802Z,6.65
2019-05-20T21:09:54.912Z,8.40
2019-05-20T21:12:25.134Z,12.60
2019-05-20T21:14:55.205Z,6.90
2019-05-20T21:17:25.286Z,7.42
2019-05-20T21:19:55.319Z,11.88
2019-05-20T21:22:25.330Z,6.95
2019-05-20T21:24:55.847Z,10.30
2019-05-20T21:27:25.783Z,9.50
2019-05-20T21:29:55.820Z,7.65
2019-05-20T21:32:25.751Z,5.90
2019-05-20T21:34:55.902Z,6.83
2019-05-20T21:37:25.839Z,10.20
2019-05-20T21:39:55.879Z,7.75
2019-05-20T21:42:25.871Z,8.38
2019-05-20T21:44:55.845Z,7.87
2019-05-20T21:47:25.778Z,9.70
2019-05-20T21:49:55.811Z,8.35
2019-05-20T21:52:25.810Z,7.47
2019-05-20T21:54:55.780Z,9.85
2019-05-20T21:57:25.711Z,8.53
2019-05-20T21:59:55.763Z,7.12
2019-05-20T22:02:26.732Z,9.60
2019-05-20T22:04:56.959Z,6.58
2019-05-20T22:07:27.087Z,5.17
2019-05-20T22:09:57.065Z,8.33
2019-05-20T22:12:27.115Z,7.55
2019-05-20T22:14:57.124Z,11.57
2019-05-20T22:17:27.303Z,6.67
2019-05-20T22:19:57.303Z,8.88
2019-05-20T22:22:29.050Z,7.87
2019-05-20T22:24:59.093Z,6.00
2019-05-20T22:27:29.022Z,6.00
2019-05-20T22:29:59.078Z,6.67
2019-05-20T22:32:29.177Z,6.55
2019-05-20T22:34:59.267Z,6.60
2019-05-20T22:37:29.303Z,6.67
2019-05-20T22:39:59.230Z,7.70
2019-05-20T22:42:29.271Z,8.13
2019-05-20T22:44:59.272Z,5.87
2019-05-20T22:47:29.320Z,8.75
2019-05-20T22:49:59.343Z,8.50
2019-05-20T22:52:29.406Z,7.55
2019-05-20T22:54:59.401Z,6.15
2019-05-20T22:57:29.515Z,6.15
2019-05-20T22:59:59.556Z,5.72
2019-05-20T23:02:29.682Z,7.05
2019-05-20T23:04:59.715Z,6.20
2019-05-20T23:07:29.789Z,5.40
2019-05-20T23:09:59.745Z,6.58
2019-05-20T23:12:29.748Z,5.65
2019-05-20T23:14:59.720Z,5.35
2019-05-20T23:17:29.643Z,4.97
2019-05-20T23:19:59.675Z,10.25
2019-05-20T23:22:29.710Z,5.83
2019-05-20T23:24:59.636Z,9.23
2019-05-20T23:27:30.687Z,5.80
2019-05-20T23:30:00.611Z,5.53
2019-05-20T23:32:30.730Z,6.87
2019-05-20T23:35:00.713Z,8.28
2019-05-20T23:37:30.677Z,5.00
2019-05-20T23:40:00.603Z,4.35
2019-05-20T23:42:30.571Z,6.17
2019-05-20T23:45:00.561Z,4.33
2019-05-20T23:47:30.563Z,4.55
2019-05-20T23:50:00.612Z,7.33
2019-05-20T23:52:30.680Z,4.20
2019-05-20T23:55:00.734Z,3.77
2019-05-20T23:57:36.082Z,6.83
